createdAt,value
2022-09-20T00:02:32.809Z,97215.44
2022-09-20T00:07:36.222Z,97211.59
2022-09-20T00:12:39.522Z,97200.41
2022-09-20T00:17:42.840Z,97192.31
2022-09-20T00:22:46.150Z,97200.06
2022-09-20T00:27:49.719Z,97183.91
2022-09-20T00:32:53.091Z,97183.09
2022-09-20T00:37:56.897Z,97185.94
2022-09-20T00:43:00.720Z,97190.06
2022-09-20T00:48:07.702Z,97178.69
2022-09-20T00:53:32.343Z,97178.34
2022-09-20T00:58:42.436Z,97170.00
2022-09-20T01:03:49.807Z,97175.25
2022-09-20T01:08:56.140Z,97174.13
2022-09-20T01:13:59.442Z,97183.91
2022-09-20T01:19:08.811Z,97173.53
2022-09-20T01:24:22.484Z,97166.66
2022-09-20T01:29:28.541Z,97172.31
2022-09-20T01:34:36.587Z,97171.69
2022-09-20T01:39:58.003Z,97173.28
2022-09-20T01:45:23.967Z,97182.25
2022-09-20T01:50:50.506Z,97166.75
2022-09-20T01:56:30.647Z,97167.66
2022-09-20T02:01:48.999Z,97167.28
2022-09-20T02:07:02.602Z,97161.31
2022-09-20T02:12:34.482Z,97165.69
2022-09-20T02:18:15.058Z,97163.88
2022-09-20T02:23:56.724Z,97168.41
2022-09-20T02:29:06.875Z,97168.34
2022-09-20T02:34:26.136Z,97171.97
2022-09-20T02:39:41.629Z,97173.59
2022-09-20T02:45:10.651Z,97165.41
2022-09-20T02:50:35.709Z,97171.19
2022-09-20T02:55:43.695Z,97169.09
2022-09-20T03:00:58.352Z,97165.84
2022-09-20T03:06:29.308Z,97161.50
2022-09-20T03:11:41.520Z,97165.34
2022-09-20T03:17:14.329Z,97161.09
2022-09-20T03:22:42.289Z,97174.81
2022-09-20T03:28:17.386Z,97176.31
2022-09-20T03:33:26.905Z,97172.66
2022-09-20T03:38:48.887Z,97176.16
2022-09-20T03:44:20.923Z,97171.34
2022-09-20T03:49:50.479Z,97178.72
2022-09-20T03:55:12.294Z,97176.47
2022-09-20T04:00:26.013Z,97182.13
2022-09-20T04:05:35.710Z,97178.28
2022-09-20T04:10:42.512Z,97190.31
2022-09-20T04:16:33.935Z,97194.97
2022-09-20T04:21:46.608Z,97202.50
2022-09-20T04:27:25.761Z,97194.81
2022-09-20T04:32:42.598Z,97196.03
2022-09-20T04:37:47.933Z,97194.16
2022-09-20T04:43:24.368Z,97197.19
2022-09-20T04:48:52.239Z,97191.28
2022-09-20T04:54:37.588Z,97194.53
2022-09-20T04:59:49.880Z,97190.59
2022-09-20T05:05:07.229Z,97204.13
2022-09-20T05:10:29.134Z,97203.81
2022-09-20T05:15:45.041Z,97203.44
2022-09-20T05:21:39.360Z,97212.94
2022-09-20T05:27:11.584Z,97212.75
2022-09-20T05:32:30.835Z,97222.22
2022-09-20T05:37:45.118Z,97219.50
2022-09-20T05:43:09.156Z,97223.91
2022-09-20T05:48:33.223Z,97218.00
2022-09-20T05:53:58.709Z,97219.13
2022-09-20T05:59:32.494Z,97239.06
2022-09-20T06:04:36.651Z,97228.94
2022-09-20T06:09:55.729Z,97230.03
2022-09-20T06:15:18.666Z,97239.38
2022-09-20T06:20:46.936Z,97236.66
2022-09-20T06:25:56.388Z,97240.22
2022-09-20T06:30:59.821Z,97258.25
2022-09-20T06:36:11.120Z,97258.38
2022-09-20T06:41:14.837Z,97259.69
2022-09-20T06:46:21.803Z,97256.94
2022-09-20T06:51:27.856Z,97264.50
2022-09-20T06:56:34.461Z,97253.41
2022-09-20T07:01:38.783Z,97260.47
2022-09-20T07:06:43.577Z,97256.16
2022-09-20T07:11:49.143Z,97255.16
2022-09-20T07:16:55.848Z,97262.53
2022-09-20T07:21:59.231Z,97253.63
2022-09-20T07:27:04.723Z,97263.84
2022-09-20T07:32:08.109Z,97257.53
2022-09-20T07:37:11.624Z,97263.63
2022-09-20T07:42:15.062Z,97260.38
2022-09-20T07:47:18.538Z,97263.22
2022-09-20T07:52:21.857Z,97258.78
2022-09-20T07:57:25.478Z,97259.06
2022-09-20T08:02:30.069Z,97260.63
2022-09-20T08:07:33.860Z,97250.47
2022-09-20T08:18:00.556Z,97241.78
2022-09-20T08:23:22.514Z,97242.38
2022-09-20T08:28:26.953Z,97243.28
2022-09-20T08:33:30.945Z,97238.97
2022-09-20T08:44:11.964Z,97235.63
2022-09-20T08:49:28.161Z,97228.00
2022-09-20T08:54:33.397Z,97221.13
2022-09-20T08:59:36.804Z,97228.44
2022-09-20T09:04:40.157Z,97227.66
2022-09-20T09:09:45.407Z,97216.06
2022-09-20T09:14:49.945Z,97212.94
2022-09-20T09:19:59.167Z,97214.81
2022-09-20T09:25:14.815Z,97206.53
2022-09-20T09:30:27.525Z,97195.28
2022-09-20T09:35:32.039Z,97198.03
2022-09-20T09:40:35.553Z,97189.88
2022-09-20T09:45:39.803Z,97201.81
2022-09-20T09:50:43.524Z,97179.69
2022-09-20T09:56:05.336Z,97188.91
2022-09-20T10:01:24.231Z,97184.47
2022-09-20T10:06:37.053Z,97180.66
2022-09-20T10:12:16.229Z,97176.91
2022-09-20T10:17:32.758Z,97167.69
2022-09-20T10:23:07.091Z,97173.44
2022-09-20T10:28:41.199Z,97163.72
2022-09-20T10:33:49.758Z,97166.19
2022-09-20T10:39:11.035Z,97161.88
2022-09-20T10:44:20.253Z,97163.34
2022-09-20T10:49:50.766Z,97152.78
2022-09-20T10:55:13.769Z,97151.78
2022-09-20T11:00:22.368Z,97148.56
2022-09-20T11:05:45.014Z,97156.06
2022-09-20T11:11:16.324Z,97145.63
2022-09-20T11:16:59.667Z,97129.59
2022-09-20T11:22:14.223Z,97138.63
2022-09-20T11:27:24.113Z,97123.97
2022-09-20T11:32:49.722Z,97121.69
2022-09-20T11:38:10.128Z,97120.56
2022-09-20T11:43:16.435Z,97125.84
2022-09-20T11:48:28.566Z,97115.88
2022-09-20T11:53:56.080Z,97120.53
2022-09-20T11:59:03.112Z,97132.81
2022-09-20T12:04:31.289Z,97125.94
2022-09-20T12:09:39.574Z,97127.25
2022-09-20T12:14:53.560Z,97124.81
2022-09-20T12:19:56.726Z,97124.81
2022-09-20T12:25:40.354Z,97133.66
2022-09-20T12:30:44.257Z,97135.91
2022-09-20T12:35:58.642Z,97138.28
2022-09-20T12:41:09.682Z,97130.97
2022-09-20T12:46:32.121Z,97135.22
2022-09-20T12:51:35.667Z,97128.25
2022-09-20T12:56:41.185Z,97132.72
2022-09-20T13:01:44.605Z,97127.75
2022-09-20T13:06:48.686Z,97130.19
2022-09-20T13:11:56.391Z,97137.75
2022-09-20T13:17:29.285Z,97132.03
2022-09-20T13:22:38.982Z,97136.88
2022-09-20T13:28:10.845Z,97124.63
2022-09-20T13:33:27.252Z,97134.75
2022-09-20T13:38:34.216Z,97123.63
2022-09-20T13:43:42.625Z,97128.59
2022-09-20T13:48:48.084Z,97127.34
2022-09-20T13:53:51.540Z,97131.38
2022-09-20T13:58:55.253Z,97138.28
2022-09-20T14:04:09.688Z,97130.63
2022-09-20T14:09:40.214Z,97133.97
2022-09-20T14:14:44.524Z,97123.72
2022-09-20T14:19:51.921Z,97129.13
2022-09-20T14:25:21.010Z,97132.72
2022-09-20T14:30:31.140Z,97123.75
2022-09-20T14:35:34.838Z,97127.97
2022-09-20T14:40:48.135Z,97129.09
2022-09-20T14:46:03.243Z,97126.38
2022-09-20T14:51:23.144Z,97122.53
2022-09-20T14:56:34.112Z,97124.66
2022-09-20T15:01:42.762Z,97129.66
2022-09-20T15:06:46.318Z,97136.94
2022-09-20T15:12:04.101Z,97140.00
2022-09-20T15:17:10.381Z,97130.81
2022-09-20T15:22:16.415Z,97126.97
2022-09-20T15:27:27.560Z,97117.47
2022-09-20T15:32:32.092Z,97130.97
2022-09-20T15:37:35.708Z,97130.00
2022-09-20T15:42:39.280Z,97145.25
2022-09-20T15:47:42.522Z,97144.91
2022-09-20T15:52:45.906Z,97157.91
2022-09-20T15:57:49.160Z,97159.03
2022-09-20T16:02:52.585Z,97159.66
2022-09-20T16:07:57.966Z,97163.66
2022-09-20T16:13:01.278Z,97162.69
2022-09-20T16:18:04.859Z,97170.38
2022-09-20T16:23:08.362Z,97168.94
2022-09-20T16:28:12.066Z,97159.97
2022-09-20T16:33:15.980Z,97169.28
2022-09-20T16:38:19.704Z,97177.75
2022-09-20T16:43:23.168Z,97183.06
2022-09-20T16:48:27.664Z,97181.47
2022-09-20T16:53:31.615Z,97184.19
2022-09-20T16:58:34.993Z,97183.38
2022-09-20T17:03:42.311Z,97184.94
2022-09-20T17:08:58.679Z,97195.50
2022-09-20T17:14:03.254Z,97211.22
2022-09-20T17:19:09.406Z,97203.16
2022-09-20T17:24:13.210Z,97205.72
2022-09-20T17:29:19.009Z,97210.19
2022-09-20T17:34:22.825Z,97212.75
2022-09-20T17:39:26.194Z,97215.78
2022-09-20T17:44:29.528Z,97207.09
2022-09-20T17:49:32.940Z,97208.22
2022-09-20T17:54:36.418Z,97202.25
2022-09-20T17:59:40.010Z,97196.28
2022-09-20T18:04:43.414Z,97191.47
2022-09-20T18:09:46.928Z,97199.47
2022-09-20T18:14:51.486Z,97202.84
2022-09-20T18:19:54.817Z,97206.16
2022-09-20T18:24:58.236Z,97206.97
2022-09-20T18:30:01.832Z,97199.91
2022-09-20T18:35:06.929Z,97203.56
2022-09-20T18:40:11.049Z,97205.00
2022-09-20T18:45:14.863Z,97213.50
2022-09-20T18:50:18.433Z,97204.00
2022-09-20T18:55:22.241Z,97197.75
2022-09-20T19:00:25.865Z,97209.47
2022-09-20T19:05:42.784Z,97198.06
2022-09-20T19:10:56.552Z,97195.03
2022-09-20T19:16:23.607Z,97201.28
2022-09-20T19:21:48.303Z,97200.66
2022-09-20T19:26:51.864Z,97196.81
2022-09-20T19:31:59.933Z,97191.25
2022-09-20T19:37:22.899Z,97193.16
2022-09-20T19:43:09.523Z,97197.94
2022-09-20T19:48:17.386Z,97199.53
2022-09-20T19:53:23.074Z,97202.75
2022-09-20T19:58:26.820Z,97196.03
2022-09-20T20:03:30.931Z,97194.91
2022-09-20T20:08:51.263Z,97185.91
2022-09-20T20:14:19.654Z,97202.28
2022-09-20T20:19:44.824Z,97192.28
2022-09-20T20:24:53.526Z,97187.16
2022-09-20T20:29:57.231Z,97190.53
2022-09-20T20:35:00.779Z,97187.91
2022-09-20T20:40:04.559Z,97177.81
2022-09-20T20:45:08.473Z,97185.19
2022-09-20T20:50:11.589Z,97187.22
2022-09-20T20:55:15.102Z,97172.44
2022-09-20T21:00:18.420Z,97171.63
2022-09-20T21:05:22.428Z,97166.16
2022-09-20T21:10:25.997Z,97176.13
2022-09-20T21:15:29.829Z,97165.38
2022-09-20T21:20:33.300Z,97167.09
2022-09-20T21:25:36.643Z,97158.59
2022-09-20T21:30:40.139Z,97154.25
2022-09-20T21:35:43.778Z,97155.97
2022-09-20T21:40:47.477Z,97163.69
2022-09-20T21:45:51.343Z,97162.19
2022-09-20T21:51:03.633Z,97162.31
2022-09-20T21:56:09.864Z,97157.75
2022-09-20T22:01:22.743Z,97155.53
2022-09-20T22:06:45.360Z,97159.19
2022-09-20T22:11:50.242Z,97145.53
2022-09-20T22:16:53.790Z,97136.09
2022-09-20T22:21:57.387Z,97128.03
2022-09-20T22:27:01.593Z,97133.47
2022-09-20T22:32:05.105Z,97124.97
2022-09-20T22:37:08.676Z,97123.25
2022-09-20T22:42:12.462Z,97121.03
2022-09-20T22:47:16.312Z,97128.88
2022-09-20T22:52:19.899Z,97121.66
2022-09-20T22:57:24.184Z,97112.38
2022-09-20T23:02:27.689Z,97106.28
2022-09-20T23:07:31.281Z,97104.06
2022-09-20T23:12:35.304Z,97108.41
2022-09-20T23:17:41.553Z,97097.50
2022-09-20T23:22:45.088Z,97095.22
2022-09-20T23:27:49.120Z,97096.94
2022-09-20T23:32:54.569Z,97096.13
2022-09-20T23:37:58.071Z,97088.75
2022-09-20T23:43:01.389Z,97093.28
2022-09-20T23:48:05.236Z,97094.41
2022-09-20T23:53:08.660Z,97083.94
2022-09-20T23:58:17.075Z,97090.91
